Aguadulce, Spain
Current Conditions -  °F | °C
As of 6:00 PM on Sunday 21 Dec 2014 (Local Time) from LEAM Reporting Station
Broken Clouds Broken Clouds  
Wind Chill: 59°   Ceiling: 3400
Heat Index: 59°   Visibility: 6mi
Dew Point: 48°   Wind: 3mph
Humidity: 67%   Direction: 90°E
Pressure: 30.42"   Gusts: NA
Location:  36.81°N, 2.57°W
Report Text: LEAM 211700Z 09003KT 060V120 9999 FEW015 BKN034 15/09 Q1030
Loading
Personal Weather Stations






























Interactive Weather Map New forecast layout! Learn more

10-Day Weather Forecast

Advertisements
Track Severe Weather on mobile